Wednesday, August 20, 2014
04:58 UTC
  |  Log In   |  Register Free
Airport Search:

Mount Sterling-Montgomery County Airport
(KIOB)

Mount Sterling-Montgomery County Airport Diagram
No Airport Diagram Available

FAA data valid effective July 24, 2014 until September 18, 2014 (unless otherwise noted).

 
 
 
 
 
 
 
 
 
 
 
 
 
 

Current Aviation Weather for Mount Sterling-Montgomery County Airport (KIOB)

The most recent METAR observation for KIOB was updated at: 1835 UTC
METAR Summary (Translated METAR)
KIOB
281835Z AUTO 31008KT 280V350 10SM SCT026 BKN038 OVC055 21/15 A3000 RMK AO2
KLEX
(29.6 nm SW from KIOB)
281844Z 31009KT 10SM FEW022 SCT028 OVC055 22/15 A3000 RMK AO2 T02170150
TAF Summary (Translated TAF)
KLEX
(29.6 nm SW from KIOB)
191720Z 1918/2018 22007KT P6SM SCT030 FM200200 20005KT P6SM BKN040 BKN250 FM200600 VRB03KT 4SM BR SCT250 TEMPO 2008/2012 1SM BR FM201500 25007KT P6SM SCT250
KJKL
(42 nm SE from KIOB)
191728Z 1918/2018 VRB05KT P6SM BKN025 FM191900 VRB04KT P6SM BKN050 FM200900 00000KT 4SM BR SCT050 BKN120 FM201400 VRB04KT P6SM BKN025
  Airport Weather Conditions for KIOB

 Current Weather at IOB
73° F
Fair
Southwest winds at 4.6 mph
IOB NOAA Radar

Pressure: 29.91 in
Humidity: 89%
Wind: Southwest at 4.6 MPH (4 KT)
Dew Point: 69.8°F
Visibility: 10.00 mi


Airport Weather Forecast for KIOB

Translated METAR and TAF for KIOB
Translated METAR for KIOB (0452 UTC 20 August 2014)
found at http://aviationweather.gov/adds/metars/
 
METAR text: KIOB 200435Z AUTO 23003KT 7SM CLR 22/21 A2992 RMK AO2
Conditions at: KIOB (MOUNT STERLING , KY, US) observed 0435 UTC 20 August 2014
Temperature: 22.0°C (72°F)
Dewpoint: 21.0°C (70°F) [RH = 94%]
Pressure (altimeter): 29.92 inches Hg (1013.3 mb)
Winds: from the SW (230 degrees) at 3 MPH (3 knots; 1.6 m/s)
Visibility: 7 miles (11 km)
Ceiling: at least 12,000 feet AGL
Clouds: sky clear below 12,000 feet AGL
Weather: automated observation with no human augmentation;
there may or may not be significant weather present at this time
Translated TAF for KIOB

There is no translated TAF available for this airport

Find All Airport Services Find A Hotel Find A Rental Car Find A Golf Course Find A Restaurant $100 Hamburger



FBO's on the Field
FBO Company Facility Photos Services Transportation Aviation Fuel Prices: Prices include tax
Catering Weather Repair Courtesy Rental Type 100LL JetA JetA+ MOGAS 8087
 
Kentucky Airmotive Inc

This FBO has not yet been rated
FS:Shell
Last Updated: Aug-12
Login to update fuel prices
SS:
Contact Kentucky Airmotive IncMore FBO Information
 
Add another FBO Facility Photos Catering Weather Repair Courtesy Rental Type 100LL JetA JetA+ MOGAS 8087
Services Transportation Aviation Fuel Prices: Prices include tax


GlobalAir.com Airport Resource Center model-print
model-print
model-print
model-print